createdAt,value
2023-01-13T00:02:01.215Z,100904.72
2023-01-13T00:05:01.241Z,100903.16
2023-01-13T00:08:01.177Z,100905.69
2023-01-13T00:11:01.213Z,100891.81
2023-01-13T00:14:01.157Z,100889.50
2023-01-13T00:17:01.185Z,100896.38
2023-01-13T00:20:01.179Z,100889.56
2023-01-13T00:23:02.180Z,100870.13
2023-01-13T00:26:02.186Z,100890.69
2023-01-13T00:29:02.197Z,100902.09
2023-01-13T00:32:03.180Z,100899.59
2023-01-13T00:35:03.187Z,100907.41
2023-01-13T00:38:03.180Z,100892.16
2023-01-13T00:41:10.193Z,100886.38
2023-01-13T00:44:10.177Z,100899.16
2023-01-13T00:47:10.163Z,100889.22
2023-01-13T00:50:10.167Z,100893.41
2023-01-13T00:53:13.175Z,100897.66
2023-01-13T00:56:21.873Z,100893.50
2023-01-13T00:59:25.166Z,100888.44
2023-01-13T01:02:25.205Z,100889.53
2023-01-13T01:05:25.177Z,100886.03
2023-01-13T01:08:25.187Z,100886.94
2023-01-13T01:11:28.164Z,100885.38
2023-01-13T01:14:28.188Z,100883.66
2023-01-13T01:17:28.177Z,100875.09
2023-01-13T01:20:28.170Z,100871.53
2023-01-13T01:23:28.196Z,100861.59
2023-01-13T01:26:33.154Z,100869.03
2023-01-13T01:29:33.198Z,100869.81
2023-01-13T01:32:33.167Z,100870.59
2023-01-13T01:35:33.172Z,100869.75
2023-01-13T01:38:33.180Z,100848.62
2023-01-13T01:41:36.202Z,100847.00
2023-01-13T01:45:07.164Z,100868.88
2023-01-13T01:48:11.190Z,100859.47
2023-01-13T01:51:11.175Z,100857.59
2023-01-13T01:54:12.185Z,100817.94
2023-01-13T01:57:12.163Z,100855.22
2023-01-13T02:00:13.195Z,100854.37
2023-01-13T02:03:13.184Z,100842.59
2023-01-13T02:06:13.180Z,100849.19
2023-01-13T02:09:14.165Z,100823.81
2023-01-13T02:12:32.217Z,100851.00
2023-01-13T02:15:35.196Z,100843.13
2023-01-13T02:18:38.167Z,100845.72
2023-01-13T02:22:17.180Z,100836.13
2023-01-13T02:25:45.185Z,100840.44
2023-01-13T02:29:21.174Z,100842.16
2023-01-13T02:32:47.179Z,100839.56
2023-01-13T02:36:04.168Z,100840.34
2023-01-13T02:39:12.179Z,100816.66
2023-01-13T02:42:39.172Z,100838.62
2023-01-13T02:46:04.289Z,100832.69
2023-01-13T02:49:06.165Z,100835.47
2023-01-13T02:52:09.185Z,100834.59
2023-01-13T02:55:11.151Z,100836.25
2023-01-13T02:58:12.166Z,100833.53
2023-01-13T03:01:12.355Z,100830.88
2023-01-13T03:04:12.248Z,100831.72
2023-01-13T03:07:22.254Z,100822.53
2023-01-13T03:10:37.210Z,100823.28
2023-01-13T03:14:01.240Z,100827.69
2023-01-13T03:17:19.240Z,100827.69
2023-01-13T03:20:23.251Z,100828.56
2023-01-13T03:23:31.270Z,100824.28
2023-01-13T03:26:48.242Z,100818.38
2023-01-13T03:29:52.247Z,100816.03
2023-01-13T03:33:01.269Z,100813.81
2023-01-13T03:36:04.206Z,100804.56
2023-01-13T03:39:06.233Z,100795.53
2023-01-13T03:42:10.200Z,100817.59
2023-01-13T03:45:31.225Z,100816.81
2023-01-13T03:48:32.218Z,100814.22
2023-01-13T03:51:34.257Z,100805.78
2023-01-13T03:54:35.263Z,100815.00
2023-01-13T03:57:38.316Z,100807.25
2023-01-13T04:00:43.197Z,100801.22
2023-01-13T04:03:51.280Z,100810.69
2023-01-13T04:07:15.197Z,100782.63
2023-01-13T04:10:18.231Z,100810.69
2023-01-13T04:13:24.216Z,100805.50
2023-01-13T04:16:25.252Z,100804.66
2023-01-13T04:19:25.217Z,100783.44
2023-01-13T04:22:25.216Z,100794.28
2023-01-13T04:25:25.282Z,100799.47
2023-01-13T04:28:25.254Z,100790.34
2023-01-13T04:31:25.317Z,100794.47
2023-01-13T04:34:26.852Z,100780.00
2023-01-13T04:37:28.266Z,100789.28
2023-01-13T04:40:28.241Z,100785.00
2023-01-13T04:43:28.197Z,100764.78
2023-01-13T04:46:28.289Z,100791.81
2023-01-13T04:49:28.206Z,100791.81
2023-01-13T04:52:28.245Z,100782.59
2023-01-13T04:55:28.227Z,100793.50
2023-01-13T04:58:28.248Z,100768.97
2023-01-13T05:01:28.336Z,100799.56
2023-01-13T05:04:28.219Z,100797.00
2023-01-13T05:07:29.201Z,100793.69
2023-01-13T05:10:29.211Z,100798.91
2023-01-13T05:13:47.233Z,100793.78
2023-01-13T05:17:06.227Z,100795.53
2023-01-13T05:20:06.189Z,100792.16
2023-01-13T05:23:24.258Z,100787.38
2023-01-13T05:26:24.263Z,100781.53
2023-01-13T05:29:24.249Z,100808.88
2023-01-13T05:32:24.240Z,100801.22
2023-01-13T05:35:24.259Z,100798.63
2023-01-13T05:38:24.244Z,100808.19
2023-01-13T05:41:42.249Z,100803.22
2023-01-13T05:44:42.260Z,100794.19
2023-01-13T05:47:42.233Z,100786.84
2023-01-13T05:50:42.201Z,100817.66
2023-01-13T05:53:42.257Z,100814.34
2023-01-13T05:56:42.259Z,100811.97
2023-01-13T05:59:42.204Z,100790.03
2023-01-13T06:02:42.274Z,100814.59
2023-01-13T06:05:42.198Z,100812.00
2023-01-13T06:08:52.213Z,100807.84
2023-01-13T06:11:53.241Z,100814.50
2023-01-13T06:14:53.797Z,100817.88
2023-01-13T06:17:59.185Z,100820.34
2023-01-13T06:21:00.262Z,100827.16
2023-01-13T06:24:01.233Z,100831.41
2023-01-13T06:27:04.224Z,100811.91
2023-01-13T06:30:04.321Z,100777.09
2023-01-13T06:33:07.289Z,100841.38
2023-01-13T06:36:20.487Z,100842.97
2023-01-13T06:39:22.209Z,100787.03
2023-01-13T06:42:40.274Z,100846.16
2023-01-13T06:45:46.664Z,100787.59
2023-01-13T06:48:47.244Z,100830.63
2023-01-13T06:51:47.209Z,100805.22
2023-01-13T06:54:48.245Z,100843.94
2023-01-13T06:57:51.210Z,100852.00
2023-01-13T07:00:56.345Z,100846.09
2023-01-13T07:03:56.240Z,100859.28
2023-01-13T07:06:56.260Z,100851.31
2023-01-13T07:09:56.272Z,100817.28
2023-01-13T07:13:15.261Z,100852.06
2023-01-13T07:16:17.220Z,100856.81
2023-01-13T07:19:17.205Z,100846.09
2023-01-13T07:22:17.255Z,100850.25
2023-01-13T07:25:17.252Z,100844.91
2023-01-13T07:28:17.236Z,100849.06
2023-01-13T07:31:19.325Z,100848.53
2023-01-13T07:34:25.207Z,100850.31
2023-01-13T07:37:25.190Z,100841.81
2023-01-13T07:40:25.242Z,100857.78
2023-01-13T07:43:41.231Z,100864.53
2023-01-13T07:46:42.040Z,100839.97
2023-01-13T07:49:42.238Z,100860.28
2023-01-13T07:52:42.212Z,100857.59
2023-01-13T07:55:42.205Z,100858.03
2023-01-13T07:58:42.208Z,100844.09
2023-01-13T08:01:42.588Z,100811.44
2023-01-13T08:04:42.252Z,100860.91
2023-01-13T08:07:42.234Z,100859.56
2023-01-13T08:10:42.244Z,100869.38
2023-01-13T08:13:42.192Z,100786.19
2023-01-13T08:16:43.329Z,100847.91
2023-01-13T08:19:43.233Z,100859.34
2023-01-13T08:22:45.222Z,100871.78
2023-01-13T08:25:45.286Z,100868.75
2023-01-13T08:28:53.778Z,100858.62
2023-01-13T08:31:58.248Z,100863.03
2023-01-13T08:35:00.637Z,100830.41
2023-01-13T08:38:03.232Z,100872.75
2023-01-13T08:41:04.269Z,100828.62
2023-01-13T08:44:07.215Z,100808.50
2023-01-13T08:47:17.237Z,100880.97
2023-01-13T08:50:19.235Z,100867.97
2023-01-13T08:53:19.282Z,100881.91
2023-01-13T08:56:24.232Z,100867.87
2023-01-13T08:59:35.327Z,100880.03
2023-01-13T09:02:38.287Z,100844.94
2023-01-13T09:05:41.136Z,100872.47
2023-01-13T09:08:41.226Z,100869.34
2023-01-13T09:12:05.270Z,100786.59
2023-01-13T09:15:10.221Z,100866.78
2023-01-13T09:18:10.219Z,100875.31
2023-01-13T09:21:18.042Z,100883.66
2023-01-13T09:27:21.230Z,100868.28
2023-01-13T09:34:09.901Z,100852.44
2023-01-13T09:37:26.323Z,100876.56
2023-01-13T09:40:33.212Z,100863.69
2023-01-13T09:44:01.292Z,100865.41
2023-01-13T09:47:14.586Z,100870.87
2023-01-13T09:50:44.370Z,100854.13
2023-01-13T09:53:46.262Z,100856.09
2023-01-13T09:56:47.506Z,100850.16
2023-01-13T09:59:47.198Z,100842.31
2023-01-13T10:03:14.284Z,100837.06
2023-01-13T10:06:20.864Z,100856.22
2023-01-13T10:09:37.248Z,100856.12
2023-01-13T10:12:57.427Z,100823.84
2023-01-13T10:16:09.314Z,100837.59
2023-01-13T10:19:28.533Z,100808.88
2023-01-13T10:23:06.458Z,100828.50
2023-01-13T10:26:01.257Z,100834.22
2023-01-13T10:29:12.250Z,100836.03
2023-01-13T10:32:17.271Z,100829.75
2023-01-13T10:35:23.284Z,100825.62
2023-01-13T10:38:30.224Z,100822.09
2023-01-13T10:41:30.279Z,100814.25
2023-01-13T10:44:35.100Z,100830.69
2023-01-13T10:47:41.218Z,100822.16
2023-01-13T10:50:44.207Z,100822.34
2023-01-13T10:53:44.213Z,100818.84
2023-01-13T10:56:46.210Z,100818.50
2023-01-13T10:59:46.217Z,100807.56
2023-01-13T11:02:48.219Z,100814.28
2023-01-13T11:05:48.195Z,100804.94
2023-01-13T11:08:57.204Z,100803.66
2023-01-13T11:12:02.210Z,100815.81
2023-01-13T11:15:02.189Z,100810.25
2023-01-13T11:18:16.198Z,100789.37
2023-01-13T11:21:20.274Z,100784.69
2023-01-13T11:24:29.240Z,100789.09
2023-01-13T11:27:51.188Z,100779.09
2023-01-13T11:31:08.283Z,100790.28
2023-01-13T11:34:13.237Z,100796.59
2023-01-13T11:37:14.200Z,100779.44
2023-01-13T11:40:19.251Z,100786.72
2023-01-13T11:43:50.332Z,100774.44
2023-01-13T11:46:50.318Z,100797.06
2023-01-13T11:49:56.777Z,100779.00
2023-01-13T11:53:29.264Z,100774.50
2023-01-13T11:56:31.189Z,100798.12
2023-01-13T11:59:36.220Z,100777.31
2023-01-13T12:02:57.314Z,100775.47
2023-01-13T12:06:09.213Z,100780.91
2023-01-13T12:09:36.175Z,100780.66
2023-01-13T12:12:50.245Z,100785.87
2023-01-13T12:16:08.278Z,100790.22
2023-01-13T12:19:32.258Z,100781.78
2023-01-13T12:22:43.223Z,100793.16
2023-01-13T12:25:50.251Z,100788.94
2023-01-13T12:29:10.184Z,100783.75
2023-01-13T12:32:11.225Z,100780.75
2023-01-13T12:35:20.232Z,100771.66
2023-01-13T12:38:41.252Z,100779.81
2023-01-13T12:42:10.257Z,100766.06
2023-01-13T12:45:21.217Z,100776.34
2023-01-13T12:49:01.188Z,100777.81
2023-01-13T12:52:17.190Z,100786.31
2023-01-13T12:55:22.188Z,100788.72
2023-01-13T12:58:22.202Z,100781.00
2023-01-13T13:01:27.283Z,100779.09
2023-01-13T13:04:32.190Z,100779.72
2023-01-13T13:07:56.218Z,100768.63
2023-01-13T13:11:11.243Z,100769.47
2023-01-13T13:14:12.242Z,100765.31
2023-01-13T13:17:12.201Z,100768.47
2023-01-13T13:20:13.211Z,100761.59
2023-01-13T13:23:13.201Z,100752.88
2023-01-13T13:26:57.187Z,100765.66
2023-01-13T13:30:27.256Z,100758.06
2023-01-13T13:33:52.199Z,100763.84
2023-01-13T13:37:04.429Z,100755.19
2023-01-13T13:40:24.217Z,100758.69
2023-01-13T13:43:45.229Z,100755.13
2023-01-13T13:46:56.189Z,100756.81
2023-01-13T13:50:03.203Z,100757.53
2023-01-13T13:53:04.168Z,100758.44
2023-01-13T13:56:14.232Z,100754.97
2023-01-13T13:59:14.219Z,100755.81
2023-01-13T14:02:15.228Z,100750.53
2023-01-13T14:05:35.181Z,100751.38
2023-01-13T14:08:35.198Z,100755.69
2023-01-13T14:11:43.192Z,100737.19
2023-01-13T14:14:43.130Z,100755.53
2023-01-13T14:17:44.190Z,100752.81
2023-01-13T14:20:44.148Z,100745.81
2023-01-13T14:23:46.183Z,100746.75
2023-01-13T14:26:46.150Z,100753.50
2023-01-13T14:29:46.171Z,100764.84
2023-01-13T14:32:51.128Z,100743.38
2023-01-13T14:35:52.267Z,100723.06
2023-01-13T14:38:53.117Z,100726.38
2023-01-13T14:41:57.166Z,100747.50
2023-01-13T14:45:00.129Z,100762.03
2023-01-13T14:48:04.134Z,100758.56
2023-01-13T14:51:04.115Z,100763.78
2023-01-13T14:54:04.185Z,100737.53
2023-01-13T14:57:05.106Z,100759.50
2023-01-13T15:00:29.165Z,100766.50
2023-01-13T15:03:30.150Z,100762.25
2023-01-13T15:06:44.092Z,100764.84
2023-01-13T15:09:54.144Z,100750.00
2023-01-13T15:12:54.087Z,100754.31
2023-01-13T15:15:55.226Z,100757.81
2023-01-13T15:18:55.078Z,100746.50
2023-01-13T15:21:55.125Z,100750.75
2023-01-13T15:24:55.101Z,100740.78
2023-01-13T15:27:57.121Z,100753.44
2023-01-13T15:30:57.131Z,100735.87
2023-01-13T15:33:57.152Z,100747.41
2023-01-13T15:36:57.120Z,100748.31
2023-01-13T15:39:57.155Z,100750.13
2023-01-13T15:43:15.106Z,100740.00
2023-01-13T15:46:44.189Z,100738.94
2023-01-13T15:49:53.104Z,100740.78
2023-01-13T15:52:53.159Z,100742.81
2023-01-13T15:55:54.093Z,100743.94
2023-01-13T15:58:54.091Z,100731.78
2023-01-13T16:01:54.154Z,100743.59
2023-01-13T16:04:54.156Z,100743.88
2023-01-13T16:07:54.093Z,100740.50
2023-01-13T16:10:54.126Z,100740.66
2023-01-13T16:13:54.156Z,100750.41
2023-01-13T16:16:54.106Z,100747.16
2023-01-13T16:19:54.140Z,100749.94
2023-01-13T16:22:54.120Z,100750.19
2023-01-13T16:25:54.135Z,100754.59
2023-01-13T16:28:54.176Z,100745.13
2023-01-13T16:31:47.274Z,100742.59
2023-01-13T16:34:47.165Z,100751.38
2023-01-13T16:37:47.168Z,100747.22
2023-01-13T16:40:50.195Z,100752.56
2023-01-13T16:43:50.196Z,100747.38
2023-01-13T16:46:52.276Z,100746.56
2023-01-13T16:49:52.438Z,100759.72
2023-01-13T16:52:52.175Z,100762.44
2023-01-13T16:55:53.199Z,100759.97
2023-01-13T16:58:53.228Z,100765.31
2023-01-13T17:01:54.350Z,100768.81
2023-01-13T17:04:54.225Z,100767.25
2023-01-13T17:07:56.183Z,100772.59
2023-01-13T17:10:56.187Z,100748.97
2023-01-13T17:13:56.251Z,100772.72
2023-01-13T17:16:57.216Z,100773.75
2023-01-13T17:19:57.223Z,100775.50
2023-01-13T17:22:58.712Z,100760.38
2023-01-13T17:26:01.187Z,100782.50
2023-01-13T17:29:01.250Z,100778.16
2023-01-13T17:32:01.240Z,100774.81
2023-01-13T17:35:01.232Z,100779.19
2023-01-13T17:38:01.229Z,100773.31
2023-01-13T17:41:01.222Z,100775.91
2023-01-13T17:44:01.237Z,100779.41
2023-01-13T17:47:01.223Z,100770.88
2023-01-13T17:50:01.219Z,100781.34
2023-01-13T17:53:01.224Z,100780.50
2023-01-13T17:56:09.169Z,100765.41
2023-01-13T17:59:10.499Z,100785.94
2023-01-13T18:02:10.288Z,100785.03
2023-01-13T18:05:10.198Z,100783.34
2023-01-13T18:08:10.205Z,100783.44
2023-01-13T18:11:10.197Z,100786.06
2023-01-13T18:14:13.170Z,100784.41
2023-01-13T18:17:13.219Z,100781.12
2023-01-13T18:20:31.211Z,100779.34
2023-01-13T18:23:50.217Z,100775.28
2023-01-13T18:27:08.210Z,100781.12
2023-01-13T18:30:12.213Z,100786.16
2023-01-13T18:33:12.202Z,100782.56
2023-01-13T18:36:12.205Z,100782.44
2023-01-13T18:39:12.217Z,100789.31
2023-01-13T18:42:31.222Z,100794.50
2023-01-13T18:45:42.174Z,100797.91
2023-01-13T18:48:42.200Z,100776.47
2023-01-13T18:51:42.210Z,100785.63
2023-01-13T18:54:42.143Z,100800.28
2023-01-13T18:57:46.248Z,100778.16
2023-01-13T19:00:46.156Z,100784.84
2023-01-13T19:03:46.201Z,100798.44
2023-01-13T19:06:46.169Z,100786.59
2023-01-13T19:09:46.215Z,100803.50
2023-01-13T19:12:46.158Z,100800.03
2023-01-13T19:15:46.188Z,100797.69
2023-01-13T19:18:46.168Z,100786.59
2023-01-13T19:21:46.180Z,100806.97
2023-01-13T19:24:49.165Z,100796.06
2023-01-13T19:27:49.187Z,100814.91
2023-01-13T19:30:49.193Z,100797.91
2023-01-13T19:33:52.171Z,100789.59
2023-01-13T19:36:52.212Z,100793.94
2023-01-13T19:39:52.160Z,100820.22
2023-01-13T19:43:10.177Z,100816.84
2023-01-13T19:46:10.186Z,100818.66
